16. August 2022

Uhrzeit Code Wetter Temp. Sichtweite Wolkendecke Wind METAR/SPECI
14:50
V
30 °C 10 km+ - 220° 220° 7 kt METAR EDDG 161250Z AUTO 22007KT 160V280 CAVOK 30/14 Q1008 NOSIG
14:20
V
29 °C 10 km+ - 250° 250° 9 kt METAR EDDG 161220Z AUTO 25009KT 200V280 CAVOK 29/13 Q1008 NOSIG
13:50
V
29 °C 10 km+ - 230° 230° 10 kt METAR EDDG 161150Z AUTO 23010KT 190V270 CAVOK 29/13 Q1008 NOSIG
13:20
V
29 °C 10 km+ - 230° 230° 10 kt METAR EDDG 161120Z AUTO 23010KT 190V270 CAVOK 29/14 Q1008 NOSIG
12:50
V
29 °C 10 km+ - 240° 240° 9 kt METAR EDDG 161050Z AUTO 24009KT 160V280 9999 FEW047 29/14 Q1008 NOSIG
12:20
V
28 °C 10 km+ - 220° 220° 6 kt METAR EDDG 161020Z AUTO 22006KT 180V340 CAVOK 28/16 Q1008 NOSIG
11:50
V
27 °C 10 km+ - 200° 200° 6 kt METAR EDDG 160950Z AUTO 20006KT 140V310 CAVOK 27/16 Q1008 NOSIG
11:20
V
26 °C 10 km+ - 230° 230° 6 kt METAR EDDG 160920Z AUTO 23006KT 190V280 CAVOK 26/15 Q1008 NOSIG
10:50
V
26 °C 10 km+ - 150° 150° 6 kt METAR EDDG 160850Z AUTO 15006KT 090V220 CAVOK 26/16 Q1008 NOSIG
10:20
V
25 °C 10 km+ - 190° 190° 3 kt METAR EDDG 160820Z AUTO 19003KT 120V240 CAVOK 25/16 Q1008 NOSIG
09:50
V
24 °C 10 km+ - 230° 230° 4 kt METAR EDDG 160750Z AUTO 23004KT 130V300 CAVOK 24/16 Q1007 NOSIG
09:20
V
22 °C 10 km+ - 220° 220° 5 kt METAR EDDG 160720Z AUTO 22005KT 190V260 CAVOK 22/16 Q1007 NOSIG
08:50
V
21 °C 10 km+ - 190° 190° 6 kt METAR EDDG 160650Z AUTO 19006KT 150V230 CAVOK 21/16 Q1007 NOSIG
08:20
V
20 °C 10 km+ - 160° 160° 4 kt METAR EDDG 160620Z AUTO 16004KT 130V200 CAVOK 20/15 Q1007 NOSIG
07:50
V
19 °C 10 km+ - 140° 140° 4 kt METAR EDDG 160550Z AUTO 14004KT CAVOK 19/15 Q1007 NOSIG
07:20
V
19 °C 10 km+ - 140° 140° 5 kt METAR EDDG 160520Z AUTO 14005KT CAVOK 19/15 Q1007 NOSIG
06:50
V
19 °C 10 km+ - Var Var 2 kt METAR EDDG 160450Z AUTO VRB02KT 9999 -RA NSC 19/15 Q1006 NOSIG
06:20
V
19 °C 10 km+ - 140° 140° 4 kt METAR EDDG 160420Z AUTO 14004KT 9999 -SHRA FEW///TCU 19/15 Q1006 NOSIG
05:50
V
19 °C 10 km+ - Var Var 2 kt METAR EDDG 160350Z AUTO VRB02KT 9999 VCSH FEW///TCU 19/16 Q1006 NOSIG
05:20
V
20 °C 10 km+ - 130° 130° 3 kt METAR EDDG 160320Z AUTO 13003KT 090V150 CAVOK 20/15 Q1006 NOSIG
04:50
V
20 °C 10 km+ - 130° 130° 4 kt METAR EDDG 160250Z AUTO 13004KT CAVOK 20/16 Q1006 NOSIG
04:20
V
20 °C 10 km+ - Var Var 2 kt METAR EDDG 160220Z AUTO VRB02KT CAVOK 20/16 Q1006 NOSIG
03:50
V
20 °C 10 km+ - 150° 150° 3 kt METAR EDDG 160150Z AUTO 15003KT CAVOK 20/16 Q1006 NOSIG
03:20
V
20 °C 10 km+ - Var Var 1 kt METAR EDDG 160120Z AUTO VRB01KT CAVOK 20/16 Q1006 NOSIG
02:50
V
21 °C 10 km+ - 190° 190° 3 kt METAR EDDG 160050Z AUTO 19003KT 140V230 CAVOK 21/16 Q1006 NOSIG
02:20
V
21 °C 10 km+ - 180° 180° 4 kt METAR EDDG 160020Z AUTO 18004KT 150V210 CAVOK 21/16 Q1006 NOSIG
01:50
V
22 °C 10 km+ - 190° 190° 5 kt METAR EDDG 152350Z AUTO 19005KT CAVOK 22/16 Q1006 NOSIG
01:20
V
22 °C 10 km+ - 180° 180° 4 kt METAR EDDG 152320Z AUTO 18004KT 150V220 CAVOK 22/17 Q1006 NOSIG
00:50
V
22 °C 10 km+ - 200° 200° 5 kt METAR EDDG 152250Z AUTO 20005KT 150V230 9999 VCSH FEW041 FEW///TCU 22/17 Q1006 NOSIG
00:20
V
23 °C 10 km+ - 220° 220° 5 kt METAR EDDG 152220Z AUTO 22005KT 190V250 9999 -SHRA FEW///TCU 23/16 Q1006 NOSIG

15. August 2022

Uhrzeit Code Wetter Temp. Sichtweite Wolkendecke Wind METAR/SPECI
23:50
V
22 °C 10 km+ - 190° 190° 6 kt METAR EDDG 152150Z AUTO 19006KT CAVOK 22/17 Q1006 NOSIG
23:20
V
22 °C 10 km+ - 180° 180° 4 kt METAR EDDG 152120Z AUTO 18004KT 140V220 CAVOK 22/17 Q1006 NOSIG
22:50
V
23 °C 10 km+ - 190° 190° 4 kt METAR EDDG 152050Z AUTO 19004KT 150V220 CAVOK 23/17 Q1006 NOSIG
22:20
V
23 °C 10 km+ - 210° 210° 4 kt METAR EDDG 152020Z AUTO 21004KT 170V240 CAVOK 23/17 Q1005 NOSIG
21:50
V
23 °C 10 km+ - 190° 190° 4 kt METAR EDDG 151950Z AUTO 19004KT 160V220 CAVOK 23/16 Q1005 NOSIG
21:20
V
24 °C 10 km+ - 200° 200° 5 kt METAR EDDG 151920Z AUTO 20005KT 170V230 CAVOK 24/16 Q1005 NOSIG
20:50
V
24 °C 10 km+ - 190° 190° 4 kt METAR EDDG 151850Z AUTO 19004KT 160V220 CAVOK 24/16 Q1005 NOSIG
20:20
V
25 °C 10 km+ - 220° 220° 4 kt METAR EDDG 151820Z AUTO 22004KT 190V260 CAVOK 25/16 Q1005 NOSIG
19:50
V
25 °C 10 km+ - 250° 250° 7 kt METAR EDDG 151750Z AUTO 25007KT CAVOK 25/16 Q1004 NOSIG
19:20
V
25 °C 10 km+ - 240° 240° 7 kt METAR EDDG 151720Z AUTO 24007KT 210V270 9999 VCSH FEW///TCU 25/15 Q1004
18:50
V
26 °C 10 km+ - 230° 230° 9 kt METAR EDDG 151650Z AUTO 23009KT 200V260 CAVOK 26/15 Q1004 BECMG 24003KT
18:20
V
26 °C 10 km+ - 250° 250° 10 kt METAR EDDG 151620Z AUTO 25010KT CAVOK 26/15 Q1004 BECMG 24004KT
17:50
V
26 °C 10 km+ - 230° 230° 12 kt METAR EDDG 151550Z AUTO 23012KT CAVOK 26/15 Q1004 BECMG 24004KT
17:20
V
27 °C 10 km+ - 240° 240° 9 kt METAR EDDG 151520Z AUTO 24009KT 210V280 CAVOK 27/15 Q1004 BECMG 24004KT
16:50
V
27 °C 10 km+ - 230° 230° 11 kt METAR EDDG 151450Z AUTO 23011KT 210V280 CAVOK 27/15 Q1003 BECMG 24005KT
16:20
V
27 °C 10 km+ - 220° 220° 8 kt METAR EDDG 151420Z AUTO 22008KT 160V260 CAVOK 27/15 Q1003 NOSIG
15:50
V
26 °C 10 km+ - 200° 200° 7 kt METAR EDDG 151350Z AUTO 20007KT 140V240 CAVOK 26/15 Q1004 BECMG 26008KT
15:20
V
26 °C 10 km+ - 160° 160° 5 kt METAR EDDG 151320Z AUTO 16005KT 110V210 CAVOK 26/14 Q1005 BECMG 26008KT
14:50
V
25 °C 10 km+ - 170° 170° 7 kt METAR EDDG 151250Z AUTO 17007KT 130V200 9999 -RA NSC 25/15 Q1005 BECMG 26008KT
14:20
V
25 °C 10 km+ - 180° 180° 5 kt METAR EDDG 151220Z AUTO 18005KT CAVOK 25/15 Q1005 RESHRA BECMG 26008KT
13:50
V
24 °C 10 km+ - 180° 180° 7 kt METAR EDDG 151150Z AUTO 18007KT 140V210 9999 SHRA FEW///TCU 24/14 Q1005 BECMG 26008KT NSW
13:20
V
25 °C 10 km+ - 200° 200° 9 kt METAR EDDG 151120Z AUTO 20009KT 170V230 9999 -SHRA FEW///TCU 25/13 Q1004 TEMPO SHRA SCT045CB
12:50
V
25 °C 10 km+ - 190° 190° 5 kt METAR EDDG 151050Z AUTO 19005KT 140V240 CAVOK 25/14 Q1004 TEMPO SHRA SCT045CB
12:20
V
25 °C 10 km+ - 260° 260° 9 kt METAR EDDG 151020Z AUTO 26009KT 220V290 CAVOK 25/13 Q1004 NOSIG
11:50
V
25 °C 10 km+ - 250° 250° 11 kt METAR EDDG 150950Z AUTO 25011KT CAVOK 25/13 Q1004 NOSIG
11:20
V
25 °C 10 km+ - 230° 230° 8 kt METAR EDDG 150920Z AUTO 23008KT 200V270 CAVOK 25/13 Q1004 NOSIG
10:50
V
25 °C 10 km+ - 220° 220° 6 kt METAR EDDG 150850Z AUTO 22006KT 170V260 CAVOK 25/14 Q1004 NOSIG
10:20
V
24 °C 10 km+ - 190° 190° 9 kt METAR EDDG 150820Z AUTO 19009KT 160V220 CAVOK 24/14 Q1004 NOSIG
09:50
V
25 °C 10 km+ - 220° 220° 7 kt METAR EDDG 150750Z AUTO 22007KT 150V250 CAVOK 25/14 Q1003 NOSIG
09:20
V
25 °C 10 km+ - 200° 200° 8 kt METAR EDDG 150720Z AUTO 20008KT 160V220 CAVOK 25/14 Q1003 NOSIG
08:50
V
25 °C 10 km+ - 170° 170° 4 kt METAR EDDG 150650Z AUTO 17004KT 120V230 CAVOK 25/15 Q1003 NOSIG
08:20
V
23 °C 10 km+ - 150° 150° 4 kt METAR EDDG 150620Z AUTO 15004KT 110V170 CAVOK 23/15 Q1003 NOSIG
07:50
V
23 °C 10 km+ - 150° 150° 4 kt METAR EDDG 150550Z AUTO 15004KT 090V180 CAVOK 23/15 Q1003 NOSIG
07:20
V
21 °C 10 km+ - 080° 080° 4 kt METAR EDDG 150520Z AUTO 08004KT 040V130 CAVOK 21/15 Q1003 BECMG 19006KT
06:50
V
21 °C 10 km+ - Var Var 2 kt METAR EDDG 150450Z AUTO VRB02KT CAVOK 21/15 Q1003 NOSIG
06:20
V
21 °C 10 km+ - Var Var 2 kt METAR EDDG 150420Z AUTO VRB02KT CAVOK 21/15 Q1003 NOSIG
05:50
V
21 °C 10 km+ - Var Var 1 kt METAR EDDG 150350Z AUTO VRB01KT CAVOK 21/15 Q1003 NOSIG
05:20
V
22 °C 10 km+ - Var Var 4 kt METAR EDDG 150320Z AUTO VRB04KT CAVOK 22/14 Q1003 NOSIG
04:50
V
21 °C 10 km+ - Var Var 2 kt METAR EDDG 150250Z AUTO VRB02KT CAVOK 21/15 Q1003 NOSIG
04:20
V
22 °C 10 km+ - Var Var 2 kt METAR EDDG 150220Z AUTO VRB02KT CAVOK 22/14 Q1003 NOSIG
03:50
V
22 °C 10 km+ - Var Var 1 kt METAR EDDG 150150Z AUTO VRB01KT CAVOK 22/14 Q1003 NOSIG
03:20
V
22 °C 10 km+ - 120° 120° 3 kt METAR EDDG 150120Z AUTO 12003KT 040V150 CAVOK 22/14 Q1004 NOSIG
02:50
V
23 °C 10 km+ - 120° 120° 4 kt METAR EDDG 150050Z AUTO 12004KT 050V170 CAVOK 23/14 Q1004 NOSIG
02:20
V
23 °C 10 km+ - 100° 100° 3 kt METAR EDDG 150020Z AUTO 10003KT 360V160 CAVOK 23/15 Q1004 NOSIG
01:50
V
24 °C 10 km+ - 090° 090° 3 kt METAR EDDG 142350Z AUTO 09003KT 030V160 CAVOK 24/15 Q1004 NOSIG
01:20
V
23 °C 10 km+ - Var Var 2 kt METAR EDDG 142320Z AUTO VRB02KT CAVOK 23/16 Q1004 NOSIG
00:50
V
23 °C 10 km+ - Var Var 2 kt METAR EDDG 142250Z AUTO VRB02KT CAVOK 23/16 Q1004 NOSIG
00:20
V
23 °C 10 km+ - 070° 070° 3 kt METAR EDDG 142220Z AUTO 07003KT 030V110 CAVOK 23/16 Q1004 NOSIG

14. August 2022

Uhrzeit Code Wetter Temp. Sichtweite Wolkendecke Wind METAR/SPECI
23:50
V
25 °C 10 km+ - 070° 070° 4 kt METAR EDDG 142150Z AUTO 07004KT 040V100 9999 VCSH FEW///CB 25/15 Q1005 RESHRA NOSIG
23:20
V
26 °C 10 km+ - Var Var 3 kt METAR EDDG 142120Z AUTO VRB03KT 9999 SHRA FEW///CB 26/15 Q1005 RETS BECMG NSW
22:50
V
26 °C 10 km+ - 190° 190° 4 kt METAR EDDG 142050Z AUTO 19004KT 140V220 9999 SHRA FEW///CB 26/15 Q1005 BECMG NSW
22:20
V
25 °C 10 km+ - Var Var 2 kt METAR EDDG 142020Z AUTO VRB02KT 9999 VCSH FEW///TCU 25/15 Q1005 TEMPO SHRA SCT060CB
21:50
V
27 °C 10 km+ - Var Var 2 kt METAR EDDG 141950Z AUTO VRB02KT CAVOK 27/15 Q1005 NOSIG
21:20
V
28 °C 10 km+ - Var Var 3 kt METAR EDDG 141920Z AUTO VRB03KT CAVOK 28/15 Q1005 NOSIG
20:50
V
28 °C 10 km+ - Var Var 2 kt METAR EDDG 141850Z AUTO VRB02KT CAVOK 28/14 Q1005 NOSIG
20:20
V
29 °C 10 km+ - Var Var 2 kt METAR EDDG 141820Z AUTO VRB02KT CAVOK 29/14 Q1005 NOSIG
19:50
V
30 °C 10 km+ - Var Var 2 kt METAR EDDG 141750Z AUTO VRB02KT CAVOK 30/14 Q1005 NOSIG
19:20
V
30 °C 10 km+ - 080° 080° 5 kt METAR EDDG 141720Z AUTO 08005KT 360V170 CAVOK 30/14 Q1005 NOSIG
18:50
V
31 °C 10 km+ - Var Var 5 kt METAR EDDG 141650Z AUTO VRB05KT CAVOK 31/14 Q1005 NOSIG
18:20
V
31 °C 10 km+ - 160° 160° 8 kt METAR EDDG 141620Z AUTO 16008KT 110V200 CAVOK 31/14 Q1006 NOSIG
17:50
V
32 °C 10 km+ - Var Var 6 kt METAR EDDG 141550Z AUTO VRB06KT CAVOK 32/14 Q1006 NOSIG
17:20
V
31 °C 10 km+ - 130° 130° 6 kt METAR EDDG 141520Z AUTO 13006KT 050V180 CAVOK 31/14 Q1006 NOSIG
16:50
V
31 °C 10 km+ - 100° 100° 6 kt METAR EDDG 141450Z AUTO 10006KT 020V190 CAVOK 31/14 Q1006 NOSIG
16:20
V
31 °C 10 km+ - Var Var 7 kt METAR EDDG 141420Z AUTO VRB07KT CAVOK 31/14 Q1006 NOSIG
15:50
V
32 °C 10 km+ - Var Var 6 kt METAR EDDG 141350Z AUTO VRB06KT CAVOK 32/14 Q1007 NOSIG
15:20
V
31 °C 10 km+ - 080° 080° 8 kt METAR EDDG 141320Z AUTO 08008KT 030V170 CAVOK 31/15 Q1007 NOSIG
14:50
V
31 °C 10 km+ - 140° 140° 7 kt METAR EDDG 141250Z AUTO 14007KT 040V210 CAVOK 31/15 Q1008 NOSIG
Ältere Daten

Wir und Dritte verfolgen dein Internetverhalten auf unserer Website mit Cookies. Wenn du fortfährst, gehen wir davon aus, dass du mit unserer Cookie-Richtlinie einverstanden bist. Mehr erfahren